Asheville Regional Airport (AVL)

 

Airport Diagram
Current Weather/Forecast (VFR Conditions)
METAR KAVL 251254Z 34011KT 10SM SCT015 OVC036 03/00 A2994 RMK AO2 SLP139 T00330000
TAF KAVL 251139Z 2512/2612 33011KT P6SM SCT015 BKN035 FM251500 33011KT P6SM FEW035 FM260200 34009KT P6SM SCT027

All Charts
General
Chart Name Download
AIRPORT DIAGRAM
TAKEOFF MINIMUMS
ALTERNATE MINIMUMS
HOT SPOT

Departures
Chart Name Download
ASHEVILLE FIVE

Approaches
Chart Name Download
ILS OR LOC RWY 35
RNAV (GPS) RWY 17
RNAV (GPS) RWY 35


Inbound Traffic (Arrivals)

No inbound traffic.


Outbound Traffic (Departures)

No outbound traffic.